sensor_id;sensor_type;location;lat;lon;timestamp;pressure;altitude;pressure_sealevel;temperature;humidity
29239;BME280;16267;48.194;11.546;2023-03-31T00:01:36;95572.47;;;9.91;83.13
29239;BME280;16267;48.194;11.546;2023-03-31T00:04:07;95559.06;;;9.91;83.27
29239;BME280;16267;48.194;11.546;2023-03-31T00:06:39;95558.41;;;9.83;82.67
29239;BME280;16267;48.194;11.546;2023-03-31T00:09:16;95553.19;;;9.72;83.15
29239;BME280;16267;48.194;11.546;2023-03-31T00:11:48;95546.06;;;9.62;82.74
29239;BME280;16267;48.194;11.546;2023-03-31T00:14:15;95536.78;;;9.70;83.06
29239;BME280;16267;48.194;11.546;2023-03-31T00:16:43;95527.88;;;9.77;83.60
29239;BME280;16267;48.194;11.546;2023-03-31T00:19:09;95528.59;;;9.81;83.49
29239;BME280;16267;48.194;11.546;2023-03-31T00:21:43;95526.59;;;9.85;83.37
29239;BME280;16267;48.194;11.546;2023-03-31T00:24:11;95524.78;;;9.78;82.24
29239;BME280;16267;48.194;11.546;2023-03-31T00:26:37;95524.81;;;9.75;82.65
29239;BME280;16267;48.194;11.546;2023-03-31T00:29:07;95517.44;;;9.82;82.86
29239;BME280;16267;48.194;11.546;2023-03-31T00:31:34;95514.38;;;9.84;82.83
29239;BME280;16267;48.194;11.546;2023-03-31T00:34:00;95514.69;;;9.86;82.16
29239;BME280;16267;48.194;11.546;2023-03-31T00:36:26;95511.22;;;9.89;82.62
29239;BME280;16267;48.194;11.546;2023-03-31T00:38:55;95501.97;;;9.94;82.66
29239;BME280;16267;48.194;11.546;2023-03-31T00:41:21;95495.63;;;9.84;81.65
29239;BME280;16267;48.194;11.546;2023-03-31T00:44:23;95494.78;;;9.87;82.03
29239;BME280;16267;48.194;11.546;2023-03-31T00:47:11;95477.84;;;9.94;82.79
29239;BME280;16267;48.194;11.546;2023-03-31T00:49:44;95476.72;;;9.91;81.74
29239;BME280;16267;48.194;11.546;2023-03-31T00:54:47;95470.00;;;10.03;82.27
29239;BME280;16267;48.194;11.546;2023-03-31T00:57:15;95469.22;;;10.06;81.70
29239;BME280;16267;48.194;11.546;2023-03-31T00:59:46;95475.28;;;10.10;82.09
29239;BME280;16267;48.194;11.546;2023-03-31T01:02:14;95462.69;;;10.07;80.60
29239;BME280;16267;48.194;11.546;2023-03-31T01:04:50;95460.00;;;10.07;80.72
29239;BME280;16267;48.194;11.546;2023-03-31T01:07:41;95458.44;;;10.10;80.63
29239;BME280;16267;48.194;11.546;2023-03-31T01:10:09;95453.13;;;10.06;80.06
29239;BME280;16267;48.194;11.546;2023-03-31T01:12:41;95448.09;;;10.08;80.14
29239;BME280;16267;48.194;11.546;2023-03-31T01:15:08;95443.56;;;10.05;79.38
29239;BME280;16267;48.194;11.546;2023-03-31T01:17:35;95433.06;;;10.14;79.87
29239;BME280;16267;48.194;11.546;2023-03-31T01:20:39;95434.59;;;10.15;79.80
29239;BME280;16267;48.194;11.546;2023-03-31T01:23:40;95430.69;;;10.20;79.96
29239;BME280;16267;48.194;11.546;2023-03-31T01:29:16;95426.41;;;10.22;79.51
29239;BME280;16267;48.194;11.546;2023-03-31T01:47:18;95394.03;;;10.33;77.59
29239;BME280;16267;48.194;11.546;2023-03-31T01:50:03;95388.28;;;10.35;77.34
29239;BME280;16267;48.194;11.546;2023-03-31T01:52:46;95397.00;;;10.39;78.42
29239;BME280;16267;48.194;11.546;2023-03-31T01:55:35;95390.06;;;10.41;77.95
29239;BME280;16267;48.194;11.546;2023-03-31T01:58:17;95383.88;;;10.44;78.46
29239;BME280;16267;48.194;11.546;2023-03-31T02:00:59;95379.59;;;10.47;78.82
29239;BME280;16267;48.194;11.546;2023-03-31T02:03:32;95368.47;;;10.48;78.74
29239;BME280;16267;48.194;11.546;2023-03-31T02:06:10;95370.03;;;10.46;77.63
29239;BME280;16267;48.194;11.546;2023-03-31T02:11:09;95356.97;;;10.48;78.16
29239;BME280;16267;48.194;11.546;2023-03-31T02:13:37;95355.06;;;10.48;78.26
29239;BME280;16267;48.194;11.546;2023-03-31T02:16:09;95359.25;;;10.49;78.15
29239;BME280;16267;48.194;11.546;2023-03-31T02:18:38;95351.94;;;10.50;77.96
29239;BME280;16267;48.194;11.546;2023-03-31T02:21:07;95344.31;;;10.48;76.89
29239;BME280;16267;48.194;11.546;2023-03-31T02:23:36;95341.63;;;10.48;77.52
29239;BME280;16267;48.194;11.546;2023-03-31T02:26:11;95343.22;;;10.46;76.43
29239;BME280;16267;48.194;11.546;2023-03-31T02:28:39;95338.19;;;10.48;77.60
29239;BME280;16267;48.194;11.546;2023-03-31T02:31:46;95340.88;;;10.48;76.85
29239;BME280;16267;48.194;11.546;2023-03-31T02:34:14;95334.00;;;10.47;75.76
29239;BME280;16267;48.194;11.546;2023-03-31T02:36:41;95339.69;;;10.49;76.61
29239;BME280;16267;48.194;11.546;2023-03-31T02:39:14;95337.44;;;10.47;75.86
29239;BME280;16267;48.194;11.546;2023-03-31T02:41:41;95337.78;;;10.49;76.49
29239;BME280;16267;48.194;11.546;2023-03-31T02:44:09;95331.56;;;10.53;77.05
29239;BME280;16267;48.194;11.546;2023-03-31T02:46:35;95332.41;;;10.49;76.64
29239;BME280;16267;48.194;11.546;2023-03-31T02:49:05;95327.38;;;10.52;76.33
29239;BME280;16267;48.194;11.546;2023-03-31T03:06:23;95318.78;;;10.20;80.11
29239;BME280;16267;48.194;11.546;2023-03-31T03:12:14;95319.72;;;10.34;81.31
29239;BME280;16267;48.194;11.546;2023-03-31T03:17:52;95320.66;;;10.43;81.71
29239;BME280;16267;48.194;11.546;2023-03-31T03:20:21;95321.84;;;10.42;82.39
29239;BME280;16267;48.194;11.546;2023-03-31T03:22:46;95333.66;;;10.45;82.89
29239;BME280;16267;48.194;11.546;2023-03-31T03:25:14;95340.44;;;10.49;83.55
29239;BME280;16267;48.194;11.546;2023-03-31T03:27:41;95348.84;;;10.52;83.19
29239;BME280;16267;48.194;11.546;2023-03-31T03:30:10;95341.56;;;10.52;84.24
29239;BME280;16267;48.194;11.546;2023-03-31T03:32:36;95351.88;;;10.54;84.80
29239;BME280;16267;48.194;11.546;2023-03-31T03:35:03;95355.31;;;10.54;84.89
29239;BME280;16267;48.194;11.546;2023-03-31T03:37:30;95348.84;;;10.52;85.65
29239;BME280;16267;48.194;11.546;2023-03-31T03:39:56;95351.19;;;10.49;86.41
29239;BME280;16267;48.194;11.546;2023-03-31T03:42:22;95358.09;;;10.51;86.93
29239;BME280;16267;48.194;11.546;2023-03-31T03:44:48;95364.69;;;10.46;87.55
29239;BME280;16267;48.194;11.546;2023-03-31T03:47:14;95367.00;;;10.44;88.62
29239;BME280;16267;48.194;11.546;2023-03-31T03:49:40;95363.22;;;10.41;88.84
29239;BME280;16267;48.194;11.546;2023-03-31T03:52:06;95351.00;;;10.40;89.95
29239;BME280;16267;48.194;11.546;2023-03-31T03:54:32;95346.47;;;10.37;90.31
29239;BME280;16267;48.194;11.546;2023-03-31T03:56:58;95337.66;;;10.37;91.40
29239;BME280;16267;48.194;11.546;2023-03-31T03:59:24;95332.69;;;10.35;92.21
29239;BME280;16267;48.194;11.546;2023-03-31T04:01:49;95319.28;;;10.35;92.21
29239;BME280;16267;48.194;11.546;2023-03-31T04:04:17;95318.09;;;10.36;91.59
29239;BME280;16267;48.194;11.546;2023-03-31T04:06:43;95320.38;;;10.38;91.81
29239;BME280;16267;48.194;11.546;2023-03-31T04:09:09;95307.38;;;10.36;92.08
29239;BME280;16267;48.194;11.546;2023-03-31T04:11:35;95309.38;;;10.32;92.57
29239;BME280;16267;48.194;11.546;2023-03-31T04:14:01;95303.69;;;10.30;93.44
29239;BME280;16267;48.194;11.546;2023-03-31T04:16:27;95306.13;;;10.21;94.56
29239;BME280;16267;48.194;11.546;2023-03-31T04:18:53;95296.25;;;10.18;95.50
29239;BME280;16267;48.194;11.546;2023-03-31T04:21:24;95293.06;;;10.23;95.48
29239;BME280;16267;48.194;11.546;2023-03-31T04:23:53;95281.16;;;10.24;94.70
29239;BME280;16267;48.194;11.546;2023-03-31T04:26:31;95279.59;;;10.26;93.07
29239;BME280;16267;48.194;11.546;2023-03-31T04:29:08;95271.13;;;10.28;92.43
29239;BME280;16267;48.194;11.546;2023-03-31T04:31:35;95271.50;;;10.30;92.30
29239;BME280;16267;48.194;11.546;2023-03-31T04:34:04;95258.81;;;10.31;92.73
29239;BME280;16267;48.194;11.546;2023-03-31T04:36:32;95250.78;;;10.31;92.86
29239;BME280;16267;48.194;11.546;2023-03-31T04:38:58;95243.09;;;10.33;92.10
29239;BME280;16267;48.194;11.546;2023-03-31T04:41:26;95240.41;;;10.33;91.84
29239;BME280;16267;48.194;11.546;2023-03-31T04:43:54;95242.34;;;10.32;92.66
29239;BME280;16267;48.194;11.546;2023-03-31T04:46:21;95234.63;;;10.34;93.09
29239;BME280;16267;48.194;11.546;2023-03-31T04:48:46;95242.69;;;10.34;93.97
29239;BME280;16267;48.194;11.546;2023-03-31T04:51:12;95233.88;;;10.34;93.74
29239;BME280;16267;48.194;11.546;2023-03-31T04:53:40;95226.59;;;10.34;93.95
29239;BME280;16267;48.194;11.546;2023-03-31T04:56:06;95212.44;;;10.34;94.86
29239;BME280;16267;48.194;11.546;2023-03-31T04:58:32;95179.47;;;10.33;95.17
29239;BME280;16267;48.194;11.546;2023-03-31T05:00:58;95162.22;;;10.34;95.50
29239;BME280;16267;48.194;11.546;2023-03-31T05:03:24;95149.63;;;10.31;96.23
29239;BME280;16267;48.194;11.546;2023-03-31T05:05:49;95129.00;;;10.28;96.50
29239;BME280;16267;48.194;11.546;2023-03-31T05:08:15;95121.72;;;10.29;97.82
29239;BME280;16267;48.194;11.546;2023-03-31T05:10:41;95116.41;;;10.25;96.92
29239;BME280;16267;48.194;11.546;2023-03-31T05:13:09;95111.03;;;10.25;97.70
29239;BME280;16267;48.194;11.546;2023-03-31T05:15:38;95102.59;;;10.26;97.02
29239;BME280;16267;48.194;11.546;2023-03-31T05:18:05;95092.25;;;10.25;97.28
29239;BME280;16267;48.194;11.546;2023-03-31T05:20:31;95087.69;;;10.25;98.43
29239;BME280;16267;48.194;11.546;2023-03-31T05:22:56;95088.81;;;10.24;98.12
29239;BME280;16267;48.194;11.546;2023-03-31T05:25:22;95067.47;;;10.21;98.18
29239;BME280;16267;48.194;11.546;2023-03-31T05:27:48;95072.50;;;10.19;99.18
29239;BME280;16267;48.194;11.546;2023-03-31T05:30:17;95078.69;;;10.16;99.70
29239;BME280;16267;48.194;11.546;2023-03-31T05:32:43;95073.31;;;10.16;100.00
29239;BME280;16267;48.194;11.546;2023-03-31T05:35:09;95067.81;;;10.07;100.00
29239;BME280;16267;48.194;11.546;2023-03-31T05:37:36;95054.81;;;10.05;100.00
29239;BME280;16267;48.194;11.546;2023-03-31T05:40:02;95038.63;;;10.09;100.00
29239;BME280;16267;48.194;11.546;2023-03-31T05:42:32;95035.88;;;10.12;100.00
29239;BME280;16267;48.194;11.546;2023-03-31T05:44:58;95020.94;;;10.11;100.00
29239;BME280;16267;48.194;11.546;2023-03-31T05:47:24;95018.19;;;10.15;100.00
29239;BME280;16267;48.194;11.546;2023-03-31T05:49:49;94998.69;;;10.14;100.00
29239;BME280;16267;48.194;11.546;2023-03-31T05:52:15;94998.25;;;10.16;100.00
29239;BME280;16267;48.194;11.546;2023-03-31T05:54:41;94992.88;;;10.16;100.00
29239;BME280;16267;48.194;11.546;2023-03-31T05:57:07;94987.03;;;10.04;100.00
29239;BME280;16267;48.194;11.546;2023-03-31T05:59:33;94971.59;;;10.09;100.00
29239;BME280;16267;48.194;11.546;2023-03-31T06:02:01;94973.88;;;10.10;100.00
29239;BME280;16267;48.194;11.546;2023-03-31T06:04:27;94971.94;;;10.11;100.00
29239;BME280;16267;48.194;11.546;2023-03-31T06:06:53;94959.72;;;10.10;100.00
29239;BME280;16267;48.194;11.546;2023-03-31T06:09:20;94964.56;;;10.15;100.00
29239;BME280;16267;48.194;11.546;2023-03-31T06:11:46;94956.03;;;10.20;100.00
29239;BME280;16267;48.194;11.546;2023-03-31T06:14:12;94945.19;;;10.23;100.00
29239;BME280;16267;48.194;11.546;2023-03-31T06:16:38;94929.84;;;10.24;100.00
29239;BME280;16267;48.194;11.546;2023-03-31T06:19:03;94919.81;;;10.28;100.00
29239;BME280;16267;48.194;11.546;2023-03-31T06:21:29;94906.00;;;10.30;100.00
29239;BME280;16267;48.194;11.546;2023-03-31T06:23:55;94901.38;;;10.30;100.00
29239;BME280;16267;48.194;11.546;2023-03-31T06:26:23;94899.03;;;10.32;100.00
29239;BME280;16267;48.194;11.546;2023-03-31T06:28:49;94895.94;;;10.34;100.00
29239;BME280;16267;48.194;11.546;2023-03-31T06:31:18;94895.66;;;10.28;100.00
29239;BME280;16267;48.194;11.546;2023-03-31T06:33:45;94890.97;;;10.32;100.00
29239;BME280;16267;48.194;11.546;2023-03-31T06:36:14;94883.28;;;10.34;100.00
29239;BME280;16267;48.194;11.546;2023-03-31T06:38:40;94886.94;;;10.40;100.00
29239;BME280;16267;48.194;11.546;2023-03-31T06:41:08;94885.75;;;10.41;100.00
29239;BME280;16267;48.194;11.546;2023-03-31T06:43:36;94897.53;;;10.31;100.00
29239;BME280;16267;48.194;11.546;2023-03-31T06:46:03;94882.53;;;10.34;100.00
29239;BME280;16267;48.194;11.546;2023-03-31T06:48:28;94875.75;;;10.29;100.00
29239;BME280;16267;48.194;11.546;2023-03-31T06:50:59;94871.94;;;10.26;100.00
29239;BME280;16267;48.194;11.546;2023-03-31T06:53:26;94880.00;;;10.26;100.00
29239;BME280;16267;48.194;11.546;2023-03-31T06:55:53;94882.94;;;10.32;100.00
29239;BME280;16267;48.194;11.546;2023-03-31T06:58:19;94894.41;;;10.33;100.00
29239;BME280;16267;48.194;11.546;2023-03-31T07:00:45;94904.97;;;10.40;100.00
29239;BME280;16267;48.194;11.546;2023-03-31T07:03:12;94907.53;;;10.43;100.00
29239;BME280;16267;48.194;11.546;2023-03-31T07:05:38;94920.09;;;10.46;100.00
29239;BME280;16267;48.194;11.546;2023-03-31T07:08:04;94947.44;;;10.41;99.73
29239;BME280;16267;48.194;11.546;2023-03-31T07:10:31;94979.56;;;10.45;100.00
29239;BME280;16267;48.194;11.546;2023-03-31T07:12:57;94991.78;;;10.46;100.00
29239;BME280;16267;48.194;11.546;2023-03-31T07:15:24;95016.03;;;10.42;100.00
29239;BME280;16267;48.194;11.546;2023-03-31T07:17:50;95007.97;;;10.42;100.00
29239;BME280;16267;48.194;11.546;2023-03-31T07:20:19;95027.59;;;10.39;100.00
29239;BME280;16267;48.194;11.546;2023-03-31T07:22:47;94994.56;;;10.42;100.00
29239;BME280;16267;48.194;11.546;2023-03-31T07:25:15;95013.34;;;10.42;100.00
29239;BME280;16267;48.194;11.546;2023-03-31T07:27:41;95048.47;;;10.32;100.00
29239;BME280;16267;48.194;11.546;2023-03-31T07:30:13;95056.09;;;10.33;100.00
29239;BME280;16267;48.194;11.546;2023-03-31T07:32:40;95027.25;;;10.37;100.00
29239;BME280;16267;48.194;11.546;2023-03-31T07:35:07;95022.97;;;10.40;100.00
29239;BME280;16267;48.194;11.546;2023-03-31T07:37:39;94998.41;;;10.41;100.00
29239;BME280;16267;48.194;11.546;2023-03-31T07:40:08;95004.84;;;10.44;100.00
29239;BME280;16267;48.194;11.546;2023-03-31T07:42:34;94990.69;;;10.43;100.00
29239;BME280;16267;48.194;11.546;2023-03-31T07:45:01;94976.88;;;10.45;100.00
29239;BME280;16267;48.194;11.546;2023-03-31T07:47:27;94950.69;;;10.49;100.00
29239;BME280;16267;48.194;11.546;2023-03-31T07:49:53;94943.38;;;10.49;100.00
29239;BME280;16267;48.194;11.546;2023-03-31T07:52:19;94919.16;;;10.53;100.00
29239;BME280;16267;48.194;11.546;2023-03-31T07:54:45;94926.97;;;10.47;100.00
29239;BME280;16267;48.194;11.546;2023-03-31T07:57:11;94918.94;;;10.47;100.00
29239;BME280;16267;48.194;11.546;2023-03-31T07:59:38;94908.84;;;10.52;100.00
29239;BME280;16267;48.194;11.546;2023-03-31T08:02:04;94892.22;;;10.57;100.00
29239;BME280;16267;48.194;11.546;2023-03-31T08:04:30;94886.75;;;10.60;100.00
29239;BME280;16267;48.194;11.546;2023-03-31T08:06:56;94883.97;;;10.64;100.00
29239;BME280;16267;48.194;11.546;2023-03-31T08:09:22;94870.34;;;10.71;100.00
29239;BME280;16267;48.194;11.546;2023-03-31T08:11:48;94862.53;;;10.77;100.00
29239;BME280;16267;48.194;11.546;2023-03-31T08:14:14;94860.19;;;10.79;100.00
29239;BME280;16267;48.194;11.546;2023-03-31T08:16:40;94854.06;;;10.78;100.00
29239;BME280;16267;48.194;11.546;2023-03-31T08:19:06;94860.91;;;10.79;100.00
29239;BME280;16267;48.194;11.546;2023-03-31T08:21:32;94867.03;;;10.80;100.00
29239;BME280;16267;48.194;11.546;2023-03-31T08:23:58;94849.00;;;10.80;100.00
29239;BME280;16267;48.194;11.546;2023-03-31T08:26:24;94849.22;;;10.86;100.00
29239;BME280;16267;48.194;11.546;2023-03-31T08:28:51;94849.09;;;10.77;100.00
29239;BME280;16267;48.194;11.546;2023-03-31T08:31:19;94838.03;;;10.75;100.00
29239;BME280;16267;48.194;11.546;2023-03-31T08:33:46;94853.28;;;10.65;100.00
29239;BME280;16267;48.194;11.546;2023-03-31T08:36:13;94851.03;;;10.63;100.00
29239;BME280;16267;48.194;11.546;2023-03-31T08:38:41;94855.56;;;10.79;100.00
29239;BME280;16267;48.194;11.546;2023-03-31T08:43:46;94849.66;;;10.84;100.00
29239;BME280;16267;48.194;11.546;2023-03-31T08:46:16;94859.19;;;10.85;100.00
29239;BME280;16267;48.194;11.546;2023-03-31T08:48:53;94876.84;;;10.86;100.00
29239;BME280;16267;48.194;11.546;2023-03-31T08:51:35;94897.00;;;10.78;100.00
29239;BME280;16267;48.194;11.546;2023-03-31T08:54:35;94916.38;;;10.57;100.00
29239;BME280;16267;48.194;11.546;2023-03-31T08:57:11;94918.09;;;10.51;99.76
29239;BME280;16267;48.194;11.546;2023-03-31T08:59:40;94911.34;;;10.59;96.49
29239;BME280;16267;48.194;11.546;2023-03-31T09:02:54;94931.00;;;10.68;97.61
29239;BME280;16267;48.194;11.546;2023-03-31T09:08:18;94901.06;;;10.70;95.75
29239;BME280;16267;48.194;11.546;2023-03-31T09:10:56;94894.72;;;10.77;96.05
29239;BME280;16267;48.194;11.546;2023-03-31T09:22:37;94888.09;;;11.07;95.58
29239;BME280;16267;48.194;11.546;2023-03-31T09:27:33;94864.00;;;11.42;95.23
29239;BME280;16267;48.194;11.546;2023-03-31T09:32:57;94856.63;;;11.80;89.88
29239;BME280;16267;48.194;11.546;2023-03-31T09:35:29;94850.13;;;12.03;86.84
29239;BME280;16267;48.194;11.546;2023-03-31T09:37:58;94852.63;;;12.20;87.47
29239;BME280;16267;48.194;11.546;2023-03-31T09:40:26;94846.88;;;12.31;87.24
29239;BME280;16267;48.194;11.546;2023-03-31T09:43:00;94831.34;;;12.35;82.72
29239;BME280;16267;48.194;11.546;2023-03-31T09:45:28;94836.97;;;12.49;81.87
29239;BME280;16267;48.194;11.546;2023-03-31T09:47:58;94829.25;;;12.61;79.12
29239;BME280;16267;48.194;11.546;2023-03-31T09:50:25;94818.16;;;12.81;81.87
29239;BME280;16267;48.194;11.546;2023-03-31T09:52:57;94807.56;;;12.86;77.69
29239;BME280;16267;48.194;11.546;2023-03-31T09:55:45;94813.22;;;12.88;76.01
29239;BME280;16267;48.194;11.546;2023-03-31T09:58:14;94808.81;;;13.04;75.87
29239;BME280;16267;48.194;11.546;2023-03-31T10:00:43;94818.59;;;13.20;77.30
29239;BME280;16267;48.194;11.546;2023-03-31T10:03:22;94803.19;;;13.29;77.19
29239;BME280;16267;48.194;11.546;2023-03-31T10:05:55;94812.13;;;13.17;73.72
29239;BME280;16267;48.194;11.546;2023-03-31T10:08:29;94801.41;;;13.26;74.65
29239;BME280;16267;48.194;11.546;2023-03-31T10:11:16;94798.28;;;13.37;75.00
29239;BME280;16267;48.194;11.546;2023-03-31T10:14:11;94784.84;;;13.55;75.64
29239;BME280;16267;48.194;11.546;2023-03-31T10:16:52;94779.59;;;13.70;74.16
29239;BME280;16267;48.194;11.546;2023-03-31T10:19:28;94784.56;;;13.81;74.20
29239;BME280;16267;48.194;11.546;2023-03-31T10:22:32;94772.25;;;13.89;71.98
29239;BME280;16267;48.194;11.546;2023-03-31T10:24:51;94771.94;;;14.05;68.69
29239;BME280;16267;48.194;11.546;2023-03-31T10:27:27;94764.13;;;14.07;68.99
29239;BME280;16267;48.194;11.546;2023-03-31T10:29:56;94746.91;;;14.14;67.48
29239;BME280;16267;48.194;11.546;2023-03-31T10:32:32;94749.63;;;14.05;65.25
29239;BME280;16267;48.194;11.546;2023-03-31T10:35:33;94743.88;;;14.21;66.22
29239;BME280;16267;48.194;11.546;2023-03-31T10:38:10;94740.72;;;14.23;67.16
29239;BME280;16267;48.194;11.546;2023-03-31T10:40:37;94719.72;;;14.36;68.13
29239;BME280;16267;48.194;11.546;2023-03-31T10:43:23;94730.03;;;14.38;69.07
29239;BME280;16267;48.194;11.546;2023-03-31T10:45:56;94719.97;;;14.47;69.40
29239;BME280;16267;48.194;11.546;2023-03-31T10:48:41;94731.22;;;14.46;68.82
29239;BME280;16267;48.194;11.546;2023-03-31T10:51:21;94726.72;;;14.43;67.24
29239;BME280;16267;48.194;11.546;2023-03-31T10:53:51;94717.41;;;14.53;68.20
29239;BME280;16267;48.194;11.546;2023-03-31T11:08:24;94688.19;;;14.42;66.63
29239;BME280;16267;48.194;11.546;2023-03-31T11:23:36;94801.75;;;14.02;71.17
29239;BME280;16267;48.194;11.546;2023-03-31T11:29:17;94792.19;;;12.65;75.79
29239;BME280;16267;48.194;11.546;2023-03-31T11:40:51;94752.00;;;11.86;70.48
29239;BME280;16267;48.194;11.546;2023-03-31T11:46:26;94707.25;;;11.92;72.82
29239;BME280;16267;48.194;11.546;2023-03-31T11:49:05;94681.38;;;12.17;73.24
29239;BME280;16267;48.194;11.546;2023-03-31T11:51:46;94680.75;;;12.13;71.63
29239;BME280;16267;48.194;11.546;2023-03-31T11:54:42;94675.69;;;12.15;73.73
29239;BME280;16267;48.194;11.546;2023-03-31T11:57:24;94655.88;;;11.99;69.87
29239;BME280;16267;48.194;11.546;2023-03-31T12:02:44;94656.22;;;12.51;71.47
29239;BME280;16267;48.194;11.546;2023-03-31T12:05:12;94625.09;;;12.41;66.10
29239;BME280;16267;48.194;11.546;2023-03-31T12:10:36;94598.97;;;12.69;67.00
29239;BME280;16267;48.194;11.546;2023-03-31T12:16:46;94599.16;;;13.02;65.73
29239;BME280;16267;48.194;11.546;2023-03-31T12:19:46;94603.94;;;13.07;64.21
29239;BME280;16267;48.194;11.546;2023-03-31T12:22:23;94602.75;;;13.17;64.43
29239;BME280;16267;48.194;11.546;2023-03-31T12:24:51;94593.94;;;13.26;63.33
29239;BME280;16267;48.194;11.546;2023-03-31T12:27:42;94602.75;;;13.17;62.03
29239;BME280;16267;48.194;11.546;2023-03-31T12:30:13;94599.47;;;13.32;61.37
29239;BME280;16267;48.194;11.546;2023-03-31T12:33:07;94600.81;;;13.36;61.65
29239;BME280;16267;48.194;11.546;2023-03-31T12:55:56;94620.59;;;13.33;61.52
29239;BME280;16267;48.194;11.546;2023-03-31T13:01:22;94629.97;;;13.56;61.92
29239;BME280;16267;48.194;11.546;2023-03-31T13:04:21;94624.91;;;13.58;61.22
29239;BME280;16267;48.194;11.546;2023-03-31T13:06:54;94628.78;;;13.57;59.04
29239;BME280;16267;48.194;11.546;2023-03-31T13:13:11;94642.09;;;13.52;57.54
29239;BME280;16267;48.194;11.546;2023-03-31T13:15:38;94621.16;;;13.37;55.53
29239;BME280;16267;48.194;11.546;2023-03-31T13:18:06;94628.66;;;13.33;52.99
29239;BME280;16267;48.194;11.546;2023-03-31T13:20:38;94608.28;;;13.23;52.28
29239;BME280;16267;48.194;11.546;2023-03-31T13:23:06;94582.41;;;12.80;51.13
29239;BME280;16267;48.194;11.546;2023-03-31T13:35:49;94543.03;;;13.19;50.88
29239;BME280;16267;48.194;11.546;2023-03-31T13:46:41;94602.09;;;13.78;51.13
29239;BME280;16267;48.194;11.546;2023-03-31T13:50:00;94591.75;;;13.76;50.02
29239;BME280;16267;48.194;11.546;2023-03-31T13:52:11;94608.44;;;13.99;52.21
29239;BME280;16267;48.194;11.546;2023-03-31T14:00:49;94640.53;;;13.97;53.11
29239;BME280;16267;48.194;11.546;2023-03-31T14:06:11;94612.41;;;13.79;54.48
29239;BME280;16267;48.194;11.546;2023-03-31T14:08:54;94586.25;;;13.61;54.00
29239;BME280;16267;48.194;11.546;2023-03-31T14:11:26;94598.84;;;13.46;54.42
29239;BME280;16267;48.194;11.546;2023-03-31T14:16:26;94605.75;;;13.38;55.21
29239;BME280;16267;48.194;11.546;2023-03-31T14:19:18;94617.56;;;13.50;55.60
29239;BME280;16267;48.194;11.546;2023-03-31T14:21:56;94613.97;;;13.53;55.38
29239;BME280;16267;48.194;11.546;2023-03-31T14:30:47;94633.47;;;13.38;56.15
29239;BME280;16267;48.194;11.546;2023-03-31T14:39:26;94628.50;;;13.09;58.92
29239;BME280;16267;48.194;11.546;2023-03-31T14:41:57;94645.84;;;13.17;60.79
29239;BME280;16267;48.194;11.546;2023-03-31T14:44:24;94748.09;;;12.71;66.59
29239;BME280;16267;48.194;11.546;2023-03-31T14:46:51;94698.59;;;11.53;72.74
29239;BME280;16267;48.194;11.546;2023-03-31T14:49:29;94713.75;;;11.25;75.92
29239;BME280;16267;48.194;11.546;2023-03-31T14:52:01;94700.53;;;11.18;76.90
29239;BME280;16267;48.194;11.546;2023-03-31T14:54:33;94712.31;;;10.99;77.85
29239;BME280;16267;48.194;11.546;2023-03-31T14:57:03;94716.84;;;10.76;80.31
29239;BME280;16267;48.194;11.546;2023-03-31T14:59:33;94708.09;;;10.37;83.61
29239;BME280;16267;48.194;11.546;2023-03-31T15:02:02;94643.78;;;10.59;83.26
29239;BME280;16267;48.194;11.546;2023-03-31T15:04:34;94644.00;;;10.65;82.33
29239;BME280;16267;48.194;11.546;2023-03-31T15:07:10;94636.47;;;10.73;81.96
29239;BME280;16267;48.194;11.546;2023-03-31T15:09:36;94630.31;;;10.85;82.29
29239;BME280;16267;48.194;11.546;2023-03-31T15:12:07;94621.06;;;10.86;84.05
29239;BME280;16267;48.194;11.546;2023-03-31T15:14:49;94618.16;;;10.93;84.51
29239;BME280;16267;48.194;11.546;2023-03-31T15:17:27;94624.78;;;11.01;84.09
29239;BME280;16267;48.194;11.546;2023-03-31T15:19:59;94617.66;;;11.07;83.47
29239;BME280;16267;48.194;11.546;2023-03-31T15:22:29;94613.31;;;11.23;84.33
29239;BME280;16267;48.194;11.546;2023-03-31T15:24:55;94618.69;;;11.23;83.34
29239;BME280;16267;48.194;11.546;2023-03-31T15:27:40;94605.91;;;11.36;84.33
29239;BME280;16267;48.194;11.546;2023-03-31T15:30:22;94606.69;;;11.36;83.07
29239;BME280;16267;48.194;11.546;2023-03-31T15:32:48;94600.13;;;11.15;79.89
29239;BME280;16267;48.194;11.546;2023-03-31T15:35:39;94587.81;;;11.05;76.02
29239;BME280;16267;48.194;11.546;2023-03-31T15:38:05;94592.31;;;11.08;75.15
29239;BME280;16267;48.194;11.546;2023-03-31T15:40:40;94597.00;;;11.17;73.67
29239;BME280;16267;48.194;11.546;2023-03-31T15:43:28;94609.06;;;11.12;73.13
29239;BME280;16267;48.194;11.546;2023-03-31T15:45:59;94599.78;;;10.91;71.45
29239;BME280;16267;48.194;11.546;2023-03-31T15:48:34;94603.81;;;11.09;72.97
29239;BME280;16267;48.194;11.546;2023-03-31T15:51:27;94595.69;;;11.22;72.49
29239;BME280;16267;48.194;11.546;2023-03-31T15:53:54;94609.25;;;11.18;70.69
29239;BME280;16267;48.194;11.546;2023-03-31T15:56:45;94615.00;;;11.29;70.11
29239;BME280;16267;48.194;11.546;2023-03-31T15:59:26;94611.00;;;11.12;69.75
29239;BME280;16267;48.194;11.546;2023-03-31T16:01:55;94605.53;;;11.25;69.78
29239;BME280;16267;48.194;11.546;2023-03-31T16:04:22;94616.75;;;11.23;68.88
29239;BME280;16267;48.194;11.546;2023-03-31T16:07:04;94618.03;;;11.41;70.25
29239;BME280;16267;48.194;11.546;2023-03-31T16:09:47;94608.53;;;11.49;69.17
29239;BME280;16267;48.194;11.546;2023-03-31T16:12:27;94600.09;;;11.59;69.42
29239;BME280;16267;48.194;11.546;2023-03-31T16:15:11;94598.03;;;11.64;69.36